Seward, AK

3:53 PM AKDT on July 23, 2014 (GMT -0800)
Soldotna (PASX) Elev 112 ft | 60.48 °N, 151.03 °W | Change Station

Current weather conditions updated 17 minutes ago

Scattered Clouds
Scattered Clouds
64 °F
Feels Like 64 °F
N
8
Wind Variable Wind from West

Today is forecast to be nearly the same temperature as yesterday. Chance of afternoon showers.

Today
High -- | Low -- °F
--% Chance of Precip.
Yesterday
High -- | Low -- °F
Precip. -- in
5:17 AM 10:49 PM
Waning Crescent, 8% visible
Pressure 29.81 in
Visibility 10.0 miles
Clouds Scattered Clouds 12000 ft
Dew Point 50 °F
Humidity 59%
Rainfall 0.00 in
Snow Depth 0 in , 14 in
UV 5 out of 12
Pollen Not available.
Air Quality Not available.
Flu Activity Not available.
METAR PASX 232336Z AUTO 28007KT 10SM SCT120 18/10 A2981 RMK AO1

More Conditions Fewer Conditions

Pressure 29.81 in
Visibility 10.0 miles
Clouds Scattered Clouds 12000 ft
Dew Point 50 °F
Humidity 59%
Rainfall 0.00 in
Snow Depth 0 in , 14 in
UV 5 out of 12
Pollen Not available.
Air Quality Not available.
Flu Activity Not available.
METAR PASX 232336Z AUTO 28007KT 10SM SCT120 18/10 A2981 RMK AO1

More Conditions Fewer Conditions

10-Day Weather Forecast

Almanac

Astronomy

Jul. 23, 2014 Rise Set
Actual Time 5:17 AM AKDT 10:49 PM AKDT
Civil Twilight 4:07 AM AKDT 11:58 PM AKDT
Nautical Twilight 2:36 AM AKDT 1:31 AM AKDT
Astronomical Twilight Sun does not rise Sun does not rise
Moon 2:53 AM AKDT 8:17 PM AKDT
Length of Visible Light 19h 50m
Length of Day
17h 32m
Tomorrow will be 4m 27s shorter.
Waning Crescent, 8% of the Moon is Illuminated
Today
Waning Crescent
Jul 26
New
Aug 3
First Quarter
Aug 10
Full
Aug 17
Last Quarter

Today's Extremes

State Highs State Lows

Community

WunderPhotos

Upload Photos

1,736,817 photos uploaded!

Nearby

Snow Depth

Station Depth Elevation
Grouse Creek Divide 0 in 700 ft
Cooper Lake 14 in 1200 ft
Summit Creek 0 in 1400 ft
Grandview 1 in 1100 ft
Turnagain Pass 0 in 1880 ft

Earthquake Activity

City Distance Mag. Time & Date
No recent earthquake activity has been reported nearby.
Minimum magnitude displayed is 2.5.

Coastal Water Temperatures

Place Temperature
No Stations Reporting

Nearby Weather Stations

Station Location Temp. Windchill Dew Point Humidity Wind Precip. Elev Updated Type
Oak Street Forest Acres Seward Alaska, Seward, AK 58.9 °F - 53 °F 81% North  at  0.0 mph 0.00 in / hr 144 ft 3:52 PM AKDT Rapid Fire
RAWS KENAI LAKE AK, Moose Pass, AK 62 °F - 48 °F 60% NNE  at  1 mph 0.00 in / hr 470 ft 2:56 PM AKDT MADIS
RAWS PEDERSEN LAGOON AK, Seward, AK 52 °F - 51 °F 97% SE  at  9 mph 0.00 in / hr 625 ft 2:28 PM AKDT MADIS
RAWS HARDING ICEFIELD AK, Seward, AK 42 °F 36 °F 38 °F 87% WNW  at  11 mph 0.00 in / hr 4299 ft 2:43 PM AKDT MADIS

Show More Stations Show Fewer Stations